sensor_id;sensor_type;location;lat;lon;timestamp;P1;durP1;ratioP1;P2;durP2;ratioP2
2724;SDS011;1370;52.596;13.112;2023-04-19T00:00:32;14.10;;;4.67;;
2724;SDS011;1370;52.596;13.112;2023-04-19T00:02:59;4.03;;;3.73;;
2724;SDS011;1370;52.596;13.112;2023-04-19T00:05:24;4.37;;;3.20;;
2724;SDS011;1370;52.596;13.112;2023-04-19T00:07:50;5.87;;;4.40;;
2724;SDS011;1370;52.596;13.112;2023-04-19T00:10:15;6.50;;;4.57;;
2724;SDS011;1370;52.596;13.112;2023-04-19T00:12:40;5.23;;;3.77;;
2724;SDS011;1370;52.596;13.112;2023-04-19T00:15:06;4.50;;;3.70;;
2724;SDS011;1370;52.596;13.112;2023-04-19T00:17:32;5.13;;;3.53;;
2724;SDS011;1370;52.596;13.112;2023-04-19T00:19:57;4.03;;;3.73;;
2724;SDS011;1370;52.596;13.112;2023-04-19T00:22:23;4.80;;;4.23;;
2724;SDS011;1370;52.596;13.112;2023-04-19T00:24:48;6.90;;;3.90;;
2724;SDS011;1370;52.596;13.112;2023-04-19T00:27:13;3.57;;;3.27;;
2724;SDS011;1370;52.596;13.112;2023-04-19T00:29:39;4.00;;;3.60;;
2724;SDS011;1370;52.596;13.112;2023-04-19T00:32:04;4.17;;;3.77;;
2724;SDS011;1370;52.596;13.112;2023-04-19T00:34:30;3.97;;;3.57;;
2724;SDS011;1370;52.596;13.112;2023-04-19T00:36:55;5.60;;;3.70;;
2724;SDS011;1370;52.596;13.112;2023-04-19T00:39:20;7.57;;;3.57;;
2724;SDS011;1370;52.596;13.112;2023-04-19T00:41:46;4.33;;;3.73;;
2724;SDS011;1370;52.596;13.112;2023-04-19T00:44:11;4.73;;;3.47;;
2724;SDS011;1370;52.596;13.112;2023-04-19T00:46:36;6.97;;;3.60;;
2724;SDS011;1370;52.596;13.112;2023-04-19T00:49:02;3.67;;;3.37;;
2724;SDS011;1370;52.596;13.112;2023-04-19T00:51:27;4.00;;;3.60;;
2724;SDS011;1370;52.596;13.112;2023-04-19T00:53:53;4.03;;;3.63;;
2724;SDS011;1370;52.596;13.112;2023-04-19T00:56:18;5.57;;;4.20;;
2724;SDS011;1370;52.596;13.112;2023-04-19T00:58:45;5.63;;;3.93;;
2724;SDS011;1370;52.596;13.112;2023-04-19T01:01:11;5.10;;;4.50;;
2724;SDS011;1370;52.596;13.112;2023-04-19T01:03:37;4.73;;;3.07;;
2724;SDS011;1370;52.596;13.112;2023-04-19T01:06:02;4.17;;;3.73;;
2724;SDS011;1370;52.596;13.112;2023-04-19T01:08:27;4.73;;;3.70;;
2724;SDS011;1370;52.596;13.112;2023-04-19T01:10:53;8.83;;;4.27;;
2724;SDS011;1370;52.596;13.112;2023-04-19T01:13:18;4.50;;;4.10;;
2724;SDS011;1370;52.596;13.112;2023-04-19T01:15:43;5.13;;;3.73;;
2724;SDS011;1370;52.596;13.112;2023-04-19T01:18:09;5.13;;;4.50;;
2724;SDS011;1370;52.596;13.112;2023-04-19T01:20:35;6.53;;;4.67;;
2724;SDS011;1370;52.596;13.112;2023-04-19T01:23:00;7.50;;;4.00;;
2724;SDS011;1370;52.596;13.112;2023-04-19T01:25:25;6.63;;;4.37;;
2724;SDS011;1370;52.596;13.112;2023-04-19T01:27:51;8.00;;;4.27;;
2724;SDS011;1370;52.596;13.112;2023-04-19T01:30:16;4.73;;;4.30;;
2724;SDS011;1370;52.596;13.112;2023-04-19T01:32:41;10.90;;;3.60;;
2724;SDS011;1370;52.596;13.112;2023-04-19T01:35:07;6.03;;;4.00;;
2724;SDS011;1370;52.596;13.112;2023-04-19T01:37:34;4.27;;;4.00;;
2724;SDS011;1370;52.596;13.112;2023-04-19T01:40:00;12.47;;;4.20;;
2724;SDS011;1370;52.596;13.112;2023-04-19T01:42:25;4.23;;;3.30;;
2724;SDS011;1370;52.596;13.112;2023-04-19T01:44:51;4.40;;;3.83;;
2724;SDS011;1370;52.596;13.112;2023-04-19T01:47:16;10.90;;;4.63;;
2724;SDS011;1370;52.596;13.112;2023-04-19T01:49:41;8.20;;;3.87;;
2724;SDS011;1370;52.596;13.112;2023-04-19T01:52:06;4.73;;;3.50;;
2724;SDS011;1370;52.596;13.112;2023-04-19T01:54:32;7.97;;;4.53;;
2724;SDS011;1370;52.596;13.112;2023-04-19T01:56:57;4.60;;;3.83;;
2724;SDS011;1370;52.596;13.112;2023-04-19T01:59:22;6.10;;;4.50;;
2724;SDS011;1370;52.596;13.112;2023-04-19T02:01:48;6.13;;;3.80;;
2724;SDS011;1370;52.596;13.112;2023-04-19T02:04:13;4.43;;;4.10;;
2724;SDS011;1370;52.596;13.112;2023-04-19T02:06:38;6.63;;;3.87;;
2724;SDS011;1370;52.596;13.112;2023-04-19T02:09:03;5.20;;;3.57;;
2724;SDS011;1370;52.596;13.112;2023-04-19T02:11:29;6.50;;;4.70;;
2724;SDS011;1370;52.596;13.112;2023-04-19T02:13:54;4.00;;;3.13;;
2724;SDS011;1370;52.596;13.112;2023-04-19T02:16:19;6.20;;;3.70;;
2724;SDS011;1370;52.596;13.112;2023-04-19T02:18:45;5.60;;;3.80;;
2724;SDS011;1370;52.596;13.112;2023-04-19T02:21:10;5.17;;;3.57;;
2724;SDS011;1370;52.596;13.112;2023-04-19T02:23:36;7.10;;;3.47;;
2724;SDS011;1370;52.596;13.112;2023-04-19T02:26:01;5.30;;;3.50;;
2724;SDS011;1370;52.596;13.112;2023-04-19T02:28:27;4.70;;;4.23;;
2724;SDS011;1370;52.596;13.112;2023-04-19T02:30:56;3.70;;;3.23;;
2724;SDS011;1370;52.596;13.112;2023-04-19T02:33:21;6.30;;;3.60;;
2724;SDS011;1370;52.596;13.112;2023-04-19T02:35:47;12.10;;;4.10;;
2724;SDS011;1370;52.596;13.112;2023-04-19T02:38:12;5.30;;;4.10;;
2724;SDS011;1370;52.596;13.112;2023-04-19T02:40:38;4.57;;;4.17;;
2724;SDS011;1370;52.596;13.112;2023-04-19T02:43:03;5.30;;;4.20;;
2724;SDS011;1370;52.596;13.112;2023-04-19T02:45:28;4.70;;;3.90;;
2724;SDS011;1370;52.596;13.112;2023-04-19T02:47:54;4.53;;;4.00;;
2724;SDS011;1370;52.596;13.112;2023-04-19T02:50:19;4.50;;;3.53;;
2724;SDS011;1370;52.596;13.112;2023-04-19T02:52:45;4.70;;;3.80;;
2724;SDS011;1370;52.596;13.112;2023-04-19T02:55:10;7.27;;;3.77;;
2724;SDS011;1370;52.596;13.112;2023-04-19T02:57:35;4.33;;;3.97;;
2724;SDS011;1370;52.596;13.112;2023-04-19T03:00:01;3.80;;;3.43;;
2724;SDS011;1370;52.596;13.112;2023-04-19T03:02:26;7.30;;;3.70;;
2724;SDS011;1370;52.596;13.112;2023-04-19T03:04:51;4.20;;;3.57;;
2724;SDS011;1370;52.596;13.112;2023-04-19T03:07:19;3.90;;;3.60;;
2724;SDS011;1370;52.596;13.112;2023-04-19T03:09:45;3.50;;;3.07;;
2724;SDS011;1370;52.596;13.112;2023-04-19T03:12:10;7.67;;;3.93;;
2724;SDS011;1370;52.596;13.112;2023-04-19T03:14:35;4.87;;;2.70;;
2724;SDS011;1370;52.596;13.112;2023-04-19T03:17:01;3.70;;;3.40;;
2724;SDS011;1370;52.596;13.112;2023-04-19T03:19:27;10.00;;;3.13;;
2724;SDS011;1370;52.596;13.112;2023-04-19T03:21:52;5.10;;;4.00;;
2724;SDS011;1370;52.596;13.112;2023-04-19T03:24:17;7.50;;;3.07;;
2724;SDS011;1370;52.596;13.112;2023-04-19T03:26:43;3.40;;;3.10;;
2724;SDS011;1370;52.596;13.112;2023-04-19T03:29:09;4.13;;;3.40;;
2724;SDS011;1370;52.596;13.112;2023-04-19T03:31:34;6.23;;;3.63;;
2724;SDS011;1370;52.596;13.112;2023-04-19T03:33:59;3.40;;;3.00;;
2724;SDS011;1370;52.596;13.112;2023-04-19T03:36:25;3.53;;;3.23;;
2724;SDS011;1370;52.596;13.112;2023-04-19T03:38:50;3.37;;;3.07;;
2724;SDS011;1370;52.596;13.112;2023-04-19T03:41:19;4.67;;;3.17;;
2724;SDS011;1370;52.596;13.112;2023-04-19T03:43:48;3.10;;;2.90;;
2724;SDS011;1370;52.596;13.112;2023-04-19T03:46:13;4.03;;;2.60;;
2724;SDS011;1370;52.596;13.112;2023-04-19T03:48:39;4.40;;;3.60;;
2724;SDS011;1370;52.596;13.112;2023-04-19T03:51:04;5.10;;;3.13;;
2724;SDS011;1370;52.596;13.112;2023-04-19T03:53:29;4.00;;;2.43;;
2724;SDS011;1370;52.596;13.112;2023-04-19T03:55:55;10.60;;;3.37;;
2724;SDS011;1370;52.596;13.112;2023-04-19T03:58:20;3.40;;;2.70;;
2724;SDS011;1370;52.596;13.112;2023-04-19T04:00:46;6.00;;;3.67;;
2724;SDS011;1370;52.596;13.112;2023-04-19T04:03:11;5.47;;;3.67;;
2724;SDS011;1370;52.596;13.112;2023-04-19T04:05:36;5.30;;;3.43;;
2724;SDS011;1370;52.596;13.112;2023-04-19T04:08:02;5.73;;;3.50;;
2724;SDS011;1370;52.596;13.112;2023-04-19T04:10:27;4.30;;;3.90;;
2724;SDS011;1370;52.596;13.112;2023-04-19T04:12:53;6.33;;;2.77;;
2724;SDS011;1370;52.596;13.112;2023-04-19T04:15:18;4.20;;;2.80;;
2724;SDS011;1370;52.596;13.112;2023-04-19T04:17:43;3.97;;;3.33;;
2724;SDS011;1370;52.596;13.112;2023-04-19T04:20:08;4.77;;;3.50;;
2724;SDS011;1370;52.596;13.112;2023-04-19T04:22:38;3.90;;;3.60;;
2724;SDS011;1370;52.596;13.112;2023-04-19T04:25:05;3.47;;;3.17;;
2724;SDS011;1370;52.596;13.112;2023-04-19T04:27:30;5.30;;;3.70;;
2724;SDS011;1370;52.596;13.112;2023-04-19T04:29:56;3.10;;;2.83;;
2724;SDS011;1370;52.596;13.112;2023-04-19T04:32:21;9.33;;;3.23;;
2724;SDS011;1370;52.596;13.112;2023-04-19T04:34:47;3.50;;;2.57;;
2724;SDS011;1370;52.596;13.112;2023-04-19T04:37:12;3.57;;;2.80;;
2724;SDS011;1370;52.596;13.112;2023-04-19T04:39:37;6.20;;;3.57;;
2724;SDS011;1370;52.596;13.112;2023-04-19T04:42:04;4.50;;;3.10;;
2724;SDS011;1370;52.596;13.112;2023-04-19T04:44:32;12.03;;;3.33;;
2724;SDS011;1370;52.596;13.112;2023-04-19T04:46:58;3.93;;;2.77;;
2724;SDS011;1370;52.596;13.112;2023-04-19T04:49:23;3.57;;;3.27;;
2724;SDS011;1370;52.596;13.112;2023-04-19T04:51:48;3.57;;;3.27;;
2724;SDS011;1370;52.596;13.112;2023-04-19T04:54:13;6.83;;;4.57;;
2724;SDS011;1370;52.596;13.112;2023-04-19T04:56:39;5.17;;;3.90;;
2724;SDS011;1370;52.596;13.112;2023-04-19T04:59:04;7.80;;;3.33;;
2724;SDS011;1370;52.596;13.112;2023-04-19T05:01:31;5.03;;;3.13;;
2724;SDS011;1370;52.596;13.112;2023-04-19T05:03:56;3.20;;;2.90;;
2724;SDS011;1370;52.596;13.112;2023-04-19T05:06:22;3.37;;;3.07;;
2724;SDS011;1370;52.596;13.112;2023-04-19T05:08:47;3.60;;;2.57;;
2724;SDS011;1370;52.596;13.112;2023-04-19T05:11:12;4.60;;;2.77;;
2724;SDS011;1370;52.596;13.112;2023-04-19T05:13:38;3.93;;;3.13;;
2724;SDS011;1370;52.596;13.112;2023-04-19T05:16:03;4.47;;;3.17;;
2724;SDS011;1370;52.596;13.112;2023-04-19T05:18:28;3.53;;;3.10;;
2724;SDS011;1370;52.596;13.112;2023-04-19T05:20:55;2.60;;;2.40;;
2724;SDS011;1370;52.596;13.112;2023-04-19T05:23:20;3.37;;;3.03;;
2724;SDS011;1370;52.596;13.112;2023-04-19T05:25:46;11.53;;;4.10;;
2724;SDS011;1370;52.596;13.112;2023-04-19T05:28:11;3.93;;;3.33;;
2724;SDS011;1370;52.596;13.112;2023-04-19T05:30:37;3.10;;;2.80;;
2724;SDS011;1370;52.596;13.112;2023-04-19T05:33:02;2.83;;;2.63;;
2724;SDS011;1370;52.596;13.112;2023-04-19T05:35:28;3.40;;;2.43;;
2724;SDS011;1370;52.596;13.112;2023-04-19T05:37:53;3.00;;;2.50;;
2724;SDS011;1370;52.596;13.112;2023-04-19T05:40:18;7.70;;;2.80;;
2724;SDS011;1370;52.596;13.112;2023-04-19T05:42:44;6.47;;;2.90;;
2724;SDS011;1370;52.596;13.112;2023-04-19T05:45:09;3.13;;;2.93;;
2724;SDS011;1370;52.596;13.112;2023-04-19T05:47:35;3.50;;;2.00;;
2724;SDS011;1370;52.596;13.112;2023-04-19T05:50:00;5.10;;;2.97;;
2724;SDS011;1370;52.596;13.112;2023-04-19T05:52:26;2.83;;;2.63;;
2724;SDS011;1370;52.596;13.112;2023-04-19T05:54:51;4.40;;;2.30;;
2724;SDS011;1370;52.596;13.112;2023-04-19T05:57:16;3.60;;;2.50;;
2724;SDS011;1370;52.596;13.112;2023-04-19T05:59:42;3.00;;;2.70;;
2724;SDS011;1370;52.596;13.112;2023-04-19T06:02:07;5.13;;;2.57;;
2724;SDS011;1370;52.596;13.112;2023-04-19T06:04:33;2.23;;;2.03;;
2724;SDS011;1370;52.596;13.112;2023-04-19T06:06:58;3.90;;;2.53;;
2724;SDS011;1370;52.596;13.112;2023-04-19T06:09:23;2.43;;;2.23;;
2724;SDS011;1370;52.596;13.112;2023-04-19T06:11:48;4.13;;;2.63;;
2724;SDS011;1370;52.596;13.112;2023-04-19T06:14:14;3.60;;;2.13;;
2724;SDS011;1370;52.596;13.112;2023-04-19T06:16:39;5.63;;;3.10;;
2724;SDS011;1370;52.596;13.112;2023-04-19T06:19:05;5.37;;;2.40;;
2724;SDS011;1370;52.596;13.112;2023-04-19T06:21:31;4.70;;;2.23;;
2724;SDS011;1370;52.596;13.112;2023-04-19T06:23:57;2.80;;;2.27;;
2724;SDS011;1370;52.596;13.112;2023-04-19T06:26:22;4.40;;;2.70;;
2724;SDS011;1370;52.596;13.112;2023-04-19T06:28:48;2.40;;;2.20;;
2724;SDS011;1370;52.596;13.112;2023-04-19T06:31:13;3.40;;;2.33;;
2724;SDS011;1370;52.596;13.112;2023-04-19T06:33:38;2.40;;;2.13;;
2724;SDS011;1370;52.596;13.112;2023-04-19T06:36:04;5.37;;;2.80;;
2724;SDS011;1370;52.596;13.112;2023-04-19T06:38:29;3.13;;;2.10;;
2724;SDS011;1370;52.596;13.112;2023-04-19T06:40:55;7.23;;;2.30;;
2724;SDS011;1370;52.596;13.112;2023-04-19T06:43:20;5.40;;;3.00;;
2724;SDS011;1370;52.596;13.112;2023-04-19T06:45:46;6.63;;;3.40;;
2724;SDS011;1370;52.596;13.112;2023-04-19T06:48:11;2.50;;;2.27;;
2724;SDS011;1370;52.596;13.112;2023-04-19T06:50:36;5.73;;;2.67;;
2724;SDS011;1370;52.596;13.112;2023-04-19T06:53:02;5.20;;;2.33;;
2724;SDS011;1370;52.596;13.112;2023-04-19T06:55:28;4.20;;;2.50;;
2724;SDS011;1370;52.596;13.112;2023-04-19T06:57:53;2.70;;;2.47;;
2724;SDS011;1370;52.596;13.112;2023-04-19T07:00:19;4.37;;;3.13;;
2724;SDS011;1370;52.596;13.112;2023-04-19T07:02:44;3.00;;;2.07;;
2724;SDS011;1370;52.596;13.112;2023-04-19T07:05:09;5.80;;;2.70;;
2724;SDS011;1370;52.596;13.112;2023-04-19T07:07:36;5.13;;;2.57;;
2724;SDS011;1370;52.596;13.112;2023-04-19T07:10:02;6.20;;;2.37;;
2724;SDS011;1370;52.596;13.112;2023-04-19T07:12:27;3.63;;;2.70;;
2724;SDS011;1370;52.596;13.112;2023-04-19T07:14:52;3.60;;;2.30;;
2724;SDS011;1370;52.596;13.112;2023-04-19T07:17:20;2.80;;;2.50;;
2724;SDS011;1370;52.596;13.112;2023-04-19T07:19:46;2.97;;;2.20;;
2724;SDS011;1370;52.596;13.112;2023-04-19T07:22:12;2.60;;;2.37;;
2724;SDS011;1370;52.596;13.112;2023-04-19T07:24:38;4.40;;;2.30;;
2724;SDS011;1370;52.596;13.112;2023-04-19T07:27:05;2.97;;;2.63;;
2724;SDS011;1370;52.596;13.112;2023-04-19T07:29:33;3.07;;;2.20;;
2724;SDS011;1370;52.596;13.112;2023-04-19T07:31:58;3.00;;;2.80;;
2724;SDS011;1370;52.596;13.112;2023-04-19T07:34:25;3.33;;;2.60;;
2724;SDS011;1370;52.596;13.112;2023-04-19T07:36:50;4.40;;;2.63;;
2724;SDS011;1370;52.596;13.112;2023-04-19T07:39:16;4.93;;;2.70;;
2724;SDS011;1370;52.596;13.112;2023-04-19T07:41:41;4.00;;;2.63;;
2724;SDS011;1370;52.596;13.112;2023-04-19T07:44:06;3.57;;;2.47;;
2724;SDS011;1370;52.596;13.112;2023-04-19T07:46:32;6.23;;;2.60;;
2724;SDS011;1370;52.596;13.112;2023-04-19T07:48:57;3.53;;;2.10;;
2724;SDS011;1370;52.596;13.112;2023-04-19T07:51:22;2.57;;;2.00;;
2724;SDS011;1370;52.596;13.112;2023-04-19T07:53:48;4.83;;;2.70;;
2724;SDS011;1370;52.596;13.112;2023-04-19T07:56:14;4.33;;;2.90;;
2724;SDS011;1370;52.596;13.112;2023-04-19T07:58:39;3.40;;;2.63;;
2724;SDS011;1370;52.596;13.112;2023-04-19T08:01:05;2.73;;;2.50;;
2724;SDS011;1370;52.596;13.112;2023-04-19T08:03:32;2.37;;;2.13;;
2724;SDS011;1370;52.596;13.112;2023-04-19T08:05:59;4.50;;;2.43;;
2724;SDS011;1370;52.596;13.112;2023-04-19T08:08:26;2.97;;;2.50;;
2724;SDS011;1370;52.596;13.112;2023-04-19T08:10:52;4.90;;;3.10;;
2724;SDS011;1370;52.596;13.112;2023-04-19T08:13:19;3.93;;;2.93;;
2724;SDS011;1370;52.596;13.112;2023-04-19T08:15:44;4.50;;;2.00;;
2724;SDS011;1370;52.596;13.112;2023-04-19T08:18:09;2.30;;;2.10;;
2724;SDS011;1370;52.596;13.112;2023-04-19T08:20:35;4.00;;;2.70;;
2724;SDS011;1370;52.596;13.112;2023-04-19T08:23:00;2.83;;;2.47;;
2724;SDS011;1370;52.596;13.112;2023-04-19T08:25:26;6.87;;;3.00;;
2724;SDS011;1370;52.596;13.112;2023-04-19T08:27:52;2.63;;;2.43;;
2724;SDS011;1370;52.596;13.112;2023-04-19T08:30:21;5.27;;;2.60;;
2724;SDS011;1370;52.596;13.112;2023-04-19T08:32:46;3.07;;;2.77;;
2724;SDS011;1370;52.596;13.112;2023-04-19T08:35:12;7.20;;;2.60;;
2724;SDS011;1370;52.596;13.112;2023-04-19T08:37:37;4.00;;;2.17;;
2724;SDS011;1370;52.596;13.112;2023-04-19T08:40:03;5.47;;;2.33;;
2724;SDS011;1370;52.596;13.112;2023-04-19T08:42:30;3.70;;;2.73;;
2724;SDS011;1370;52.596;13.112;2023-04-19T08:44:55;9.07;;;4.30;;
2724;SDS011;1370;52.596;13.112;2023-04-19T08:47:22;3.10;;;2.80;;
2724;SDS011;1370;52.596;13.112;2023-04-19T08:49:47;6.17;;;2.93;;
2724;SDS011;1370;52.596;13.112;2023-04-19T08:52:13;4.30;;;2.97;;
2724;SDS011;1370;52.596;13.112;2023-04-19T08:54:39;7.53;;;3.50;;
2724;SDS011;1370;52.596;13.112;2023-04-19T08:57:05;7.20;;;3.20;;
2724;SDS011;1370;52.596;13.112;2023-04-19T08:59:32;3.83;;;2.77;;
2724;SDS011;1370;52.596;13.112;2023-04-19T09:02:01;3.33;;;2.97;;
2724;SDS011;1370;52.596;13.112;2023-04-19T09:04:26;3.00;;;2.63;;
2724;SDS011;1370;52.596;13.112;2023-04-19T09:06:52;4.43;;;2.27;;
2724;SDS011;1370;52.596;13.112;2023-04-19T09:09:18;7.97;;;3.00;;
2724;SDS011;1370;52.596;13.112;2023-04-19T09:11:45;4.13;;;3.00;;
2724;SDS011;1370;52.596;13.112;2023-04-19T09:14:11;5.00;;;2.50;;
2724;SDS011;1370;52.596;13.112;2023-04-19T09:16:41;3.87;;;3.10;;
2724;SDS011;1370;52.596;13.112;2023-04-19T09:19:07;5.40;;;3.60;;
2724;SDS011;1370;52.596;13.112;2023-04-19T09:21:33;4.83;;;3.40;;
2724;SDS011;1370;52.596;13.112;2023-04-19T09:23:59;6.43;;;3.30;;
2724;SDS011;1370;52.596;13.112;2023-04-19T09:26:25;4.90;;;3.20;;
2724;SDS011;1370;52.596;13.112;2023-04-19T09:29:01;6.40;;;3.60;;
2724;SDS011;1370;52.596;13.112;2023-04-19T09:31:27;4.57;;;2.73;;
2724;SDS011;1370;52.596;13.112;2023-04-19T09:33:53;2.97;;;2.67;;
2724;SDS011;1370;52.596;13.112;2023-04-19T09:36:29;4.83;;;2.93;;
2724;SDS011;1370;52.596;13.112;2023-04-19T09:38:56;5.20;;;4.10;;
2724;SDS011;1370;52.596;13.112;2023-04-19T09:41:21;2.77;;;2.57;;
2724;SDS011;1370;52.596;13.112;2023-04-19T09:43:47;3.30;;;2.77;;
2724;SDS011;1370;52.596;13.112;2023-04-19T09:46:28;8.07;;;3.73;;
2724;SDS011;1370;52.596;13.112;2023-04-19T09:48:55;5.10;;;3.10;;
2724;SDS011;1370;52.596;13.112;2023-04-19T09:51:31;3.87;;;3.00;;
2724;SDS011;1370;52.596;13.112;2023-04-19T09:54:04;2.87;;;2.53;;
2724;SDS011;1370;52.596;13.112;2023-04-19T09:56:29;6.17;;;3.07;;
2724;SDS011;1370;52.596;13.112;2023-04-19T09:58:54;4.33;;;2.80;;
2724;SDS011;1370;52.596;13.112;2023-04-19T10:01:20;5.87;;;3.07;;
2724;SDS011;1370;52.596;13.112;2023-04-19T10:03:47;5.70;;;3.90;;
2724;SDS011;1370;52.596;13.112;2023-04-19T10:06:17;4.10;;;3.27;;
2724;SDS011;1370;52.596;13.112;2023-04-19T10:08:42;7.73;;;2.60;;
2724;SDS011;1370;52.596;13.112;2023-04-19T10:11:09;4.10;;;2.73;;
2724;SDS011;1370;52.596;13.112;2023-04-19T10:13:35;3.90;;;2.87;;
2724;SDS011;1370;52.596;13.112;2023-04-19T10:16:01;4.20;;;3.20;;
2724;SDS011;1370;52.596;13.112;2023-04-19T10:18:27;7.83;;;3.60;;
2724;SDS011;1370;52.596;13.112;2023-04-19T10:20:57;4.10;;;3.50;;
2724;SDS011;1370;52.596;13.112;2023-04-19T10:23:26;14.23;;;3.70;;
2724;SDS011;1370;52.596;13.112;2023-04-19T10:25:55;5.73;;;3.53;;
2724;SDS011;1370;52.596;13.112;2023-04-19T10:28:26;4.23;;;2.70;;
2724;SDS011;1370;52.596;13.112;2023-04-19T10:30:52;4.73;;;3.33;;
2724;SDS011;1370;52.596;13.112;2023-04-19T10:33:23;4.07;;;3.60;;
2724;SDS011;1370;52.596;13.112;2023-04-19T10:35:50;11.63;;;3.73;;
2724;SDS011;1370;52.596;13.112;2023-04-19T10:38:16;4.57;;;3.30;;
2724;SDS011;1370;52.596;13.112;2023-04-19T10:40:52;4.20;;;3.40;;
2724;SDS011;1370;52.596;13.112;2023-04-19T10:43:34;4.00;;;3.00;;
2724;SDS011;1370;52.596;13.112;2023-04-19T10:46:12;6.83;;;4.60;;
2724;SDS011;1370;52.596;13.112;2023-04-19T10:48:49;4.50;;;3.40;;
2724;SDS011;1370;52.596;13.112;2023-04-19T10:54:00;4.50;;;3.17;;
2724;SDS011;1370;52.596;13.112;2023-04-19T11:04:08;6.93;;;3.67;;
2724;SDS011;1370;52.596;13.112;2023-04-19T11:06:34;8.03;;;4.33;;
2724;SDS011;1370;52.596;13.112;2023-04-19T11:09:01;6.40;;;4.70;;
2724;SDS011;1370;52.596;13.112;2023-04-19T11:11:32;6.40;;;4.07;;
2724;SDS011;1370;52.596;13.112;2023-04-19T11:13:59;4.83;;;3.97;;
2724;SDS011;1370;52.596;13.112;2023-04-19T11:16:26;9.20;;;3.43;;
2724;SDS011;1370;52.596;13.112;2023-04-19T11:18:51;4.43;;;3.80;;
2724;SDS011;1370;52.596;13.112;2023-04-19T11:21:17;4.80;;;3.43;;
2724;SDS011;1370;52.596;13.112;2023-04-19T11:23:42;8.40;;;3.57;;
2724;SDS011;1370;52.596;13.112;2023-04-19T11:26:10;5.03;;;4.07;;
2724;SDS011;1370;52.596;13.112;2023-04-19T11:28:36;5.30;;;3.93;;
2724;SDS011;1370;52.596;13.112;2023-04-19T11:31:02;6.50;;;4.00;;
2724;SDS011;1370;52.596;13.112;2023-04-19T11:33:32;6.73;;;3.10;;
2724;SDS011;1370;52.596;13.112;2023-04-19T11:35:57;3.93;;;3.50;;
2724;SDS011;1370;52.596;13.112;2023-04-19T11:38:22;7.83;;;4.13;;
2724;SDS011;1370;52.596;13.112;2023-04-19T11:41:01;3.53;;;3.20;;
2724;SDS011;1370;52.596;13.112;2023-04-19T11:43:31;6.37;;;3.60;;
2724;SDS011;1370;52.596;13.112;2023-04-19T11:46:01;6.30;;;3.90;;
2724;SDS011;1370;52.596;13.112;2023-04-19T11:48:28;3.93;;;3.17;;
2724;SDS011;1370;52.596;13.112;2023-04-19T11:50:56;8.53;;;3.83;;
2724;SDS011;1370;52.596;13.112;2023-04-19T11:53:22;5.47;;;3.93;;
2724;SDS011;1370;52.596;13.112;2023-04-19T11:55:50;10.73;;;3.20;;
2724;SDS011;1370;52.596;13.112;2023-04-19T11:58:26;6.90;;;4.10;;
2724;SDS011;1370;52.596;13.112;2023-04-19T12:01:06;9.63;;;3.50;;
2724;SDS011;1370;52.596;13.112;2023-04-19T12:03:33;4.10;;;3.67;;
2724;SDS011;1370;52.596;13.112;2023-04-19T12:05:59;8.90;;;3.50;;
2724;SDS011;1370;52.596;13.112;2023-04-19T12:08:33;4.53;;;3.60;;
2724;SDS011;1370;52.596;13.112;2023-04-19T12:11:02;6.60;;;3.60;;
2724;SDS011;1370;52.596;13.112;2023-04-19T12:13:28;6.73;;;4.43;;
2724;SDS011;1370;52.596;13.112;2023-04-19T12:15:55;6.50;;;3.10;;
2724;SDS011;1370;52.596;13.112;2023-04-19T12:18:21;4.83;;;3.53;;
2724;SDS011;1370;52.596;13.112;2023-04-19T12:20:46;10.43;;;4.10;;
2724;SDS011;1370;52.596;13.112;2023-04-19T12:23:13;4.47;;;3.53;;
2724;SDS011;1370;52.596;13.112;2023-04-19T12:25:39;5.97;;;3.60;;
2724;SDS011;1370;52.596;13.112;2023-04-19T12:28:05;5.60;;;4.80;;
2724;SDS011;1370;52.596;13.112;2023-04-19T12:30:31;8.33;;;4.00;;
2724;SDS011;1370;52.596;13.112;2023-04-19T12:32:57;5.90;;;5.40;;
2724;SDS011;1370;52.596;13.112;2023-04-19T12:35:23;9.37;;;4.23;;
2724;SDS011;1370;52.596;13.112;2023-04-19T12:37:51;9.13;;;4.23;;
2724;SDS011;1370;52.596;13.112;2023-04-19T12:40:16;6.20;;;5.00;;
2724;SDS011;1370;52.596;13.112;2023-04-19T12:42:42;5.93;;;4.70;;
2724;SDS011;1370;52.596;13.112;2023-04-19T12:45:07;5.17;;;4.67;;
2724;SDS011;1370;52.596;13.112;2023-04-19T12:47:33;4.83;;;4.30;;
2724;SDS011;1370;52.596;13.112;2023-04-19T12:49:58;5.43;;;4.87;;
2724;SDS011;1370;52.596;13.112;2023-04-19T12:52:24;5.60;;;4.40;;
2724;SDS011;1370;52.596;13.112;2023-04-19T12:54:49;13.30;;;4.17;;
2724;SDS011;1370;52.596;13.112;2023-04-19T12:57:14;4.67;;;4.10;;
2724;SDS011;1370;52.596;13.112;2023-04-19T12:59:40;7.03;;;4.37;;
2724;SDS011;1370;52.596;13.112;2023-04-19T13:02:05;7.60;;;4.07;;
2724;SDS011;1370;52.596;13.112;2023-04-19T13:04:31;6.43;;;4.10;;
2724;SDS011;1370;52.596;13.112;2023-04-19T13:06:56;3.47;;;3.17;;
2724;SDS011;1370;52.596;13.112;2023-04-19T13:09:21;3.70;;;3.40;;
2724;SDS011;1370;52.596;13.112;2023-04-19T13:11:46;9.33;;;4.23;;
2724;SDS011;1370;52.596;13.112;2023-04-19T13:14:12;5.40;;;4.00;;
2724;SDS011;1370;52.596;13.112;2023-04-19T13:16:37;4.40;;;4.10;;
2724;SDS011;1370;52.596;13.112;2023-04-19T13:19:02;12.90;;;4.50;;
2724;SDS011;1370;52.596;13.112;2023-04-19T13:21:28;4.73;;;4.33;;
2724;SDS011;1370;52.596;13.112;2023-04-19T13:23:53;6.37;;;4.80;;
2724;SDS011;1370;52.596;13.112;2023-04-19T13:26:18;5.77;;;4.77;;
2724;SDS011;1370;52.596;13.112;2023-04-19T13:28:44;9.60;;;4.80;;
2724;SDS011;1370;52.596;13.112;2023-04-19T13:31:09;6.90;;;4.43;;
2724;SDS011;1370;52.596;13.112;2023-04-19T13:33:34;8.10;;;4.50;;
2724;SDS011;1370;52.596;13.112;2023-04-19T13:36:00;6.13;;;4.73;;
2724;SDS011;1370;52.596;13.112;2023-04-19T13:38:25;6.17;;;4.80;;
2724;SDS011;1370;52.596;13.112;2023-04-19T13:40:51;8.50;;;4.30;;
2724;SDS011;1370;52.596;13.112;2023-04-19T13:43:16;5.30;;;4.77;;
2724;SDS011;1370;52.596;13.112;2023-04-19T13:45:41;5.53;;;4.30;;
2724;SDS011;1370;52.596;13.112;2023-04-19T13:48:06;4.33;;;3.93;;
2724;SDS011;1370;52.596;13.112;2023-04-19T13:50:32;10.00;;;5.10;;
2724;SDS011;1370;52.596;13.112;2023-04-19T13:52:57;7.10;;;4.33;;
2724;SDS011;1370;52.596;13.112;2023-04-19T13:55:22;12.83;;;4.50;;
2724;SDS011;1370;52.596;13.112;2023-04-19T13:57:50;4.30;;;4.00;;
2724;SDS011;1370;52.596;13.112;2023-04-19T14:00:16;5.70;;;4.43;;
2724;SDS011;1370;52.596;13.112;2023-04-19T14:02:41;8.80;;;4.97;;
2724;SDS011;1370;52.596;13.112;2023-04-19T14:05:08;5.53;;;4.20;;
2724;SDS011;1370;52.596;13.112;2023-04-19T14:07:34;4.20;;;3.80;;
2724;SDS011;1370;52.596;13.112;2023-04-19T14:09:59;9.10;;;6.53;;
2724;SDS011;1370;52.596;13.112;2023-04-19T14:12:25;7.97;;;4.80;;
2724;SDS011;1370;52.596;13.112;2023-04-19T14:14:50;8.40;;;4.67;;
2724;SDS011;1370;52.596;13.112;2023-04-19T14:17:15;8.87;;;4.63;;
2724;SDS011;1370;52.596;13.112;2023-04-19T14:19:41;4.67;;;4.30;;
2724;SDS011;1370;52.596;13.112;2023-04-19T14:22:06;10.30;;;5.10;;
2724;SDS011;1370;52.596;13.112;2023-04-19T14:24:31;5.80;;;4.80;;
2724;SDS011;1370;52.596;13.112;2023-04-19T14:26:57;5.43;;;4.47;;
2724;SDS011;1370;52.596;13.112;2023-04-19T14:29:22;5.87;;;4.13;;
2724;SDS011;1370;52.596;13.112;2023-04-19T14:31:47;9.63;;;4.10;;
2724;SDS011;1370;52.596;13.112;2023-04-19T14:34:13;12.60;;;5.53;;
2724;SDS011;1370;52.596;13.112;2023-04-19T14:36:38;6.67;;;5.40;;
2724;SDS011;1370;52.596;13.112;2023-04-19T14:39:04;7.93;;;5.00;;
2724;SDS011;1370;52.596;13.112;2023-04-19T14:41:30;6.40;;;5.03;;
2724;SDS011;1370;52.596;13.112;2023-04-19T14:43:55;5.23;;;4.83;;
2724;SDS011;1370;52.596;13.112;2023-04-19T14:46:20;6.00;;;5.40;;
2724;SDS011;1370;52.596;13.112;2023-04-19T14:48:46;9.50;;;5.90;;
2724;SDS011;1370;52.596;13.112;2023-04-19T14:51:11;13.00;;;6.10;;
2724;SDS011;1370;52.596;13.112;2023-04-19T14:53:36;7.50;;;5.00;;
2724;SDS011;1370;52.596;13.112;2023-04-19T14:56:02;5.93;;;5.00;;
2724;SDS011;1370;52.596;13.112;2023-04-19T14:58:29;11.30;;;5.93;;
2724;SDS011;1370;52.596;13.112;2023-04-19T15:00:54;9.87;;;6.03;;
2724;SDS011;1370;52.596;13.112;2023-04-19T15:03:20;10.20;;;5.57;;